Time;durP1;ratioP1;P1;durP2;ratioP2;P2;SDS_P1;SDS_P2;PMS_P1;PMS_P2;Temp;Humidity;BMP_temperature;BMP_pressure;BME280_temperature;BME280_humidity;BME280_pressure;Samples;Min_cycle;Max_cycle;Signal;HPM_P1;HPM_P2
2023/08/18 00:01:52;;;;;;;;;;;;;;;29.49;51.76;99997.84;4472132;32;32774;-78
2023/08/18 00:04:20;;;;;;;;;;;;;;;29.58;51.78;100000.25;4477084;32;33871;-78
2023/08/18 00:06:47;;;;;;;;;;;;;;;29.38;52.49;99999.94;4475318;32;32890;-78
2023/08/18 00:09:14;;;;;;;;;;;;;;;29.26;53.01;100006.53;4479360;32;34916;-78
2023/08/18 00:11:42;;;;;;;;;;;;;;;29.89;51.08;99996.66;4471183;32;33035;-78
2023/08/18 00:14:09;;;;;;;;;;;;;;;29.70;51.33;99995.47;4483999;32;34082;-78
2023/08/18 00:16:36;;;;;;;;;;;;;;;29.84;50.97;100003.94;4484107;32;33325;-78
2023/08/18 00:19:04;;;;;;;;;;;;;;;29.81;51.05;99995.16;4484003;32;34024;-78
2023/08/18 00:21:31;;;;;;;;;;;;;;;29.67;51.42;100001.78;4484516;32;34370;-78
2023/08/18 00:23:58;;;;;;;;;;;;;;;29.98;50.52;99999.03;4483496;32;34039;-78
2023/08/18 00:26:26;;;;;;;;;;;;;;;29.73;51.16;99995.41;4484280;32;33700;-78
2023/08/18 00:28:53;;;;;;;;;;;;;;;29.53;51.85;100002.16;4483470;32;34028;-78
2023/08/18 00:31:20;;;;;;;;;;;;;;;29.61;51.76;99991.25;4484550;32;34423;-78
2023/08/18 00:33:49;;;;;;;;;;;;;;;29.02;53.20;99994.75;4483114;32;34629;-78
2023/08/18 00:36:16;;;;;;;;;;;;;;;28.91;53.70;99991.50;4484264;32;33371;-78
2023/08/18 00:38:44;;;;;;;;;;;;;;;29.01;53.47;99990.31;4460499;32;34465;-78
2023/08/18 00:41:13;;;;;;;;;;;;;;;29.67;51.52;99987.53;4443745;32;34140;-78
2023/08/18 00:43:40;;;;;;;;;;;;;;;29.64;51.84;99990.31;4484224;32;34898;-78
2023/08/18 00:46:07;;;;;;;;;;;;;;;29.51;52.38;99985.31;4485501;32;33094;-78
2023/08/18 00:48:38;;;;;;;;;;;;;;;29.65;51.74;99981.38;4471946;32;34124;-78
2023/08/18 00:51:05;;;;;;;;;;;;;;;29.73;51.70;99979.38;4462560;31;33200;-78
2023/08/18 00:53:33;;;;;;;;;;;;;;;29.42;52.31;99977.63;4477449;32;34003;-78
2023/08/18 00:56:01;;;;;;;;;;;;;;;29.69;51.65;99978.56;4482275;32;33643;-78
2023/08/18 00:58:29;;;;;;;;;;;;;;;29.36;52.48;99978.69;4484265;32;33721;-78
2023/08/18 01:00:56;;;;;;;;;;;;;;;29.00;53.18;99972.59;4463106;32;35064;-78
2023/08/18 01:03:23;;;;;;;;;;;;;;;28.69;53.86;99973.44;4481815;32;34180;-78
2023/08/18 01:05:51;;;;;;;;;;;;;;;29.64;51.23;99979.63;4479481;32;33436;-78
2023/08/18 01:08:18;;;;;;;;;;;;;;;30.09;49.70;99977.31;4460505;32;34350;-78
2023/08/18 01:10:49;;;;;;;;;;;;;;;28.81;53.06;99978.41;4477315;32;34881;-78
2023/08/18 01:13:38;;;;;;;;;;;;;;;29.43;51.63;99979.34;4454088;32;33383;-78
2023/08/18 01:16:06;;;;;;;;;;;;;;;28.87;53.34;99979.16;4464865;32;34221;-78
2023/08/18 01:18:33;;;;;;;;;;;;;;;28.99;53.06;99978.81;4469062;32;32820;-78
2023/08/18 01:21:01;;;;;;;;;;;;;;;29.53;51.58;99967.47;4468571;32;34920;-78
2023/08/18 01:23:41;;;;;;;;;;;;;;;29.28;52.33;99977.13;4463775;32;35019;-78
2023/08/18 01:26:08;;;;;;;;;;;;;;;29.00;53.21;99967.25;4485354;32;33425;-77
2023/08/18 01:28:36;;;;;;;;;;;;;;;29.38;52.13;99978.59;4482189;32;34669;-78
2023/08/18 01:31:04;;;;;;;;;;;;;;;28.79;53.85;99974.91;4479553;32;33951;-78
2023/08/18 01:33:32;;;;;;;;;;;;;;;28.95;53.38;99974.50;4470497;32;33915;-77
2023/08/18 01:36:02;;;;;;;;;;;;;;;28.36;55.52;99975.16;4484133;32;33179;-78
2023/08/18 01:38:30;;;;;;;;;;;;;;;28.92;53.99;99974.59;4467738;32;35259;-78
2023/08/18 01:40:57;;;;;;;;;;;;;;;29.17;53.07;99966.81;4480688;32;33529;-78
2023/08/18 01:43:26;;;;;;;;;;;;;;;29.18;53.13;99966.72;4470698;32;34729;-78
2023/08/18 01:45:53;;;;;;;;;;;;;;;29.42;52.65;99964.28;4473103;32;33931;-77
2023/08/18 01:48:21;;;;;;;;;;;;;;;29.11;53.48;99973.16;4470334;32;34040;-78
2023/08/18 01:50:48;;;;;;;;;;;;;;;28.96;54.11;99968.25;4483008;32;33080;-78
2023/08/18 01:53:15;;;;;;;;;;;;;;;28.56;55.27;99972.88;4482291;32;34891;-78
2023/08/18 01:55:43;;;;;;;;;;;;;;;28.70;55.20;99969.84;4478930;32;33060;-78
2023/08/18 01:58:10;;;;;;;;;;;;;;;28.39;56.11;99975.94;4478938;32;33892;-78
2023/08/18 02:00:37;;;;;;;;;;;;;;;28.10;56.89;99970.47;4484119;32;34195;-78
2023/08/18 02:03:05;;;;;;;;;;;;;;;28.41;55.99;99971.47;4481844;32;34886;-78
2023/08/18 02:05:32;;;;;;;;;;;;;;;28.17;56.82;99969.44;4461927;32;33337;-78
2023/08/18 02:08:03;;;;;;;;;;;;;;;28.96;54.40;99960.25;4484179;32;34181;-78
2023/08/18 02:10:33;;;;;;;;;;;;;;;28.93;54.40;99960.34;4484468;32;34164;-77
2023/08/18 02:13:00;;;;;;;;;;;;;;;28.91;54.46;99967.50;4477189;32;34298;-78
2023/08/18 02:15:27;;;;;;;;;;;;;;;28.95;54.37;99953.16;4484412;32;33573;-78
2023/08/18 02:17:55;;;;;;;;;;;;;;;28.73;54.95;99960.91;4479586;32;34215;-78
2023/08/18 02:20:22;;;;;;;;;;;;;;;28.72;55.13;99965.31;4477607;32;34907;-78
2023/08/18 02:22:49;;;;;;;;;;;;;;;28.87;54.64;99965.84;4482051;32;34158;-78
2023/08/18 02:25:17;;;;;;;;;;;;;;;29.39;53.14;99975.91;4481002;32;33644;-78
2023/08/18 02:27:44;;;;;;;;;;;;;;;29.47;52.93;99969.47;4484639;32;34031;-78
2023/08/18 02:30:11;;;;;;;;;;;;;;;29.39;53.01;99967.03;4484651;32;34056;-77
2023/08/18 02:32:39;;;;;;;;;;;;;;;28.97;54.31;99956.66;4485284;32;34955;-77
2023/08/18 02:35:07;;;;;;;;;;;;;;;29.14;54.44;99956.22;4484915;32;33847;-77
2023/08/18 02:37:35;;;;;;;;;;;;;;;29.50;53.22;99951.56;4484601;32;34112;-77
2023/08/18 02:40:05;;;;;;;;;;;;;;;29.72;52.33;99946.44;4485040;32;34147;-78
2023/08/18 02:42:35;;;;;;;;;;;;;;;29.13;54.00;99952.69;4484962;32;33242;-77
2023/08/18 02:45:03;;;;;;;;;;;;;;;28.03;57.42;99959.97;4484845;32;32455;-78
2023/08/18 02:47:30;;;;;;;;;;;;;;;29.09;54.27;99956.31;4484898;32;33540;-77
2023/08/18 02:49:58;;;;;;;;;;;;;;;29.17;54.58;99959.66;4470870;32;35029;-78
2023/08/18 02:52:25;;;;;;;;;;;;;;;29.53;53.40;99967.47;4473929;32;34405;-77
2023/08/18 02:54:52;;;;;;;;;;;;;;;29.80;52.69;99967.56;4478643;32;33315;-78
2023/08/18 02:57:20;;;;;;;;;;;;;;;29.72;52.86;99966.91;4480425;32;34248;-77
2023/08/18 02:59:47;;;;;;;;;;;;;;;28.91;55.55;99959.50;4484197;32;33838;-77
2023/08/18 03:02:15;;;;;;;;;;;;;;;28.91;55.43;99956.84;4481621;32;34052;-77
2023/08/18 03:04:42;;;;;;;;;;;;;;;29.25;54.78;99951.44;4483253;32;33076;-78
2023/08/18 03:07:09;;;;;;;;;;;;;;;28.87;55.79;99965.84;4448369;32;32517;-77
2023/08/18 03:09:37;;;;;;;;;;;;;;;28.97;55.85;99951.31;4481134;32;34694;-77
2023/08/18 03:12:04;;;;;;;;;;;;;;;29.25;55.10;99959.44;4483826;32;33951;-77
2023/08/18 03:14:31;;;;;;;;;;;;;;;29.42;54.40;99958.94;4479907;32;33143;-78
2023/08/18 03:16:59;;;;;;;;;;;;;;;29.10;55.36;99952.72;4472618;32;34892;-78
2023/08/18 03:19:26;;;;;;;;;;;;;;;28.63;56.82;99961.13;4472827;32;33947;-77
2023/08/18 03:21:55;;;;;;;;;;;;;;;29.19;55.40;99952.50;4482660;32;33993;-77
2023/08/18 03:24:22;;;;;;;;;;;;;;;28.49;57.08;99960.63;4474146;32;32902;-78
2023/08/18 03:26:49;;;;;;;;;;;;;;;29.33;54.94;99956.53;4473570;32;34622;-77
2023/08/18 03:29:17;;;;;;;;;;;;;;;29.14;55.37;99953.53;4481461;32;35040;-78
2023/08/18 03:31:45;;;;;;;;;;;;;;;29.04;55.88;99954.69;4484375;32;34196;-78
2023/08/18 03:34:12;;;;;;;;;;;;;;;29.11;56.21;99959.81;4458567;32;31541;-77
2023/08/18 03:36:40;;;;;;;;;;;;;;;29.27;55.97;99964.75;4476568;32;34258;-78
2023/08/18 03:39:07;;;;;;;;;;;;;;;29.12;56.15;99964.25;4462384;32;32674;-78
2023/08/18 03:41:34;;;;;;;;;;;;;;;28.89;56.54;99966.66;4483192;32;34118;-78
2023/08/18 03:44:02;;;;;;;;;;;;;;;29.29;55.44;99973.56;4476032;32;34115;-77
2023/08/18 03:46:29;;;;;;;;;;;;;;;29.64;54.52;99963.63;4477650;32;32579;-78
2023/08/18 03:48:57;;;;;;;;;;;;;;;29.29;55.41;99960.22;4478173;32;34565;-78
2023/08/18 03:51:25;;;;;;;;;;;;;;;29.28;55.67;99961.13;4482820;32;33708;-78
2023/08/18 03:53:53;;;;;;;;;;;;;;;29.02;56.38;99960.94;4465803;32;33092;-78
2023/08/18 03:56:21;;;;;;;;;;;;;;;29.12;56.35;99961.59;4477699;32;33464;-78
2023/08/18 03:58:48;;;;;;;;;;;;;;;29.35;55.58;99960.91;4482169;32;34046;-78
2023/08/18 04:01:15;;;;;;;;;;;;;;;29.64;54.79;99967.16;4467916;32;33933;-78
2023/08/18 04:03:44;;;;;;;;;;;;;;;29.37;55.27;99960.88;4483298;32;33711;-78
2023/08/18 04:06:12;;;;;;;;;;;;;;;29.47;55.07;99962.31;4483528;32;32378;-78
2023/08/18 04:08:41;;;;;;;;;;;;;;;28.94;56.63;99972.75;4483569;32;34946;-78
2023/08/18 04:11:10;;;;;;;;;;;;;;;29.39;55.48;99969.69;4484113;32;34961;-78
2023/08/18 04:13:37;;;;;;;;;;;;;;;29.46;55.30;99963.25;4488450;32;33384;-78
2023/08/18 04:16:05;;;;;;;;;;;;;;;29.13;56.15;99968.69;4489551;32;33984;-78
2023/08/18 04:18:32;;;;;;;;;;;;;;;28.48;58.20;99971.31;4489054;32;34732;-78
2023/08/18 04:20:59;;;;;;;;;;;;;;;28.68;57.62;99969.00;4483249;32;33879;-78
2023/08/18 04:23:28;;;;;;;;;;;;;;;28.89;56.75;99956.88;4486869;32;31845;-77
2023/08/18 04:25:56;;;;;;;;;;;;;;;28.83;57.11;99967.72;4484333;32;34169;-77
2023/08/18 04:28:23;;;;;;;;;;;;;;;28.18;59.23;99965.81;4489435;31;33898;-77
2023/08/18 04:30:51;;;;;;;;;;;;;;;28.71;57.71;99971.59;4485839;32;34212;-78
2023/08/18 04:33:19;;;;;;;;;;;;;;;28.54;58.40;99965.84;4487888;32;33690;-77
2023/08/18 04:35:46;;;;;;;;;;;;;;;29.07;56.84;99959.94;4488461;32;33485;-77
2023/08/18 04:38:14;;;;;;;;;;;;;;;28.51;58.33;99957.88;4488277;32;34941;-77
2023/08/18 04:40:41;;;;;;;;;;;;;;;28.22;59.32;99963.06;4482403;32;33915;-77
2023/08/18 04:43:09;;;;;;;;;;;;;;;29.23;56.46;99958.62;4482114;32;33464;-77
2023/08/18 04:45:36;;;;;;;;;;;;;;;29.00;57.12;99964.59;4487186;32;34925;-77
2023/08/18 04:48:04;;;;;;;;;;;;;;;28.87;57.58;99960.50;4486055;32;33960;-78
2023/08/18 04:50:31;;;;;;;;;;;;;;;28.84;57.65;99956.16;4487294;32;34940;-78
2023/08/18 04:52:58;;;;;;;;;;;;;;;29.17;56.88;99958.81;4487734;32;34191;-78
2023/08/18 04:55:26;;;;;;;;;;;;;;;29.11;57.13;99959.81;4474428;32;34338;-78
2023/08/18 04:57:53;;;;;;;;;;;;;;;29.69;55.50;99962.56;4486690;32;34409;-78
2023/08/18 05:00:21;;;;;;;;;;;;;;;29.79;55.29;99963.16;4488097;32;33568;-78
2023/08/18 05:02:48;;;;;;;;;;;;;;;29.54;55.81;99963.91;4482283;32;33388;-77
2023/08/18 05:05:16;;;;;;;;;;;;;;;29.82;55.12;99965.72;4482579;32;32735;-78
2023/08/18 05:07:43;;;;;;;;;;;;;;;30.13;54.41;99978.06;4487078;32;34281;-76
2023/08/18 05:10:11;;;;;;;;;;;;;;;29.79;55.19;99976.53;4482557;32;34769;-77
2023/08/18 05:12:38;;;;;;;;;;;;;;;29.87;54.97;99979.81;4484566;32;34132;-77
2023/08/18 05:15:06;;;;;;;;;;;;;;;29.79;55.20;99980.06;4487284;32;34921;-77
2023/08/18 05:17:33;;;;;;;;;;;;;;;29.41;56.62;99983.88;4487888;32;34696;-77
2023/08/18 05:20:00;;;;;;;;;;;;;;;30.03;54.95;99982.00;4486970;32;35096;-77
2023/08/18 05:22:28;;;;;;;;;;;;;;;29.98;54.94;99984.81;4477425;32;34261;-77
2023/08/18 05:24:56;;;;;;;;;;;;;;;30.23;54.05;99992.91;4478915;32;34994;-77
2023/08/18 05:27:23;;;;;;;;;;;;;;;29.89;54.84;99985.97;4482351;32;35384;-76
2023/08/18 05:29:51;;;;;;;;;;;;;;;30.24;53.89;99991.97;4482760;32;34006;-76
2023/08/18 05:32:18;;;;;;;;;;;;;;;30.25;54.07;99991.06;4480390;32;33986;-76
2023/08/18 05:34:45;;;;;;;;;;;;;;;30.25;53.87;99993.72;4479572;32;34133;-76
2023/08/18 05:37:13;;;;;;;;;;;;;;;30.03;54.34;99993.53;4475735;32;33123;-76
2023/08/18 05:39:40;;;;;;;;;;;;;;;30.26;53.82;99992.78;4482630;32;35023;-77
2023/08/18 05:42:07;;;;;;;;;;;;;;;30.33;53.64;99997.03;4466758;32;32834;-77
2023/08/18 05:44:35;;;;;;;;;;;;;;;30.41;52.92;100003.94;4472328;32;34258;-77
2023/08/18 05:47:03;;;;;;;;;;;;;;;30.96;51.12;100002.00;4474566;32;34166;-76
2023/08/18 05:49:32;;;;;;;;;;;;;;;30.76;51.88;100006.25;4480586;32;33984;-76
2023/08/18 05:52:00;;;;;;;;;;;;;;;30.93;51.33;100002.13;4473945;32;33697;-77
2023/08/18 05:54:27;;;;;;;;;;;;;;;30.68;52.25;100013.66;4473963;32;34289;-76
2023/08/18 05:56:54;;;;;;;;;;;;;;;30.97;51.78;100006.44;4477943;32;34157;-77
2023/08/18 05:59:22;;;;;;;;;;;;;;;30.82;51.84;100004.28;4479077;32;33615;-77
2023/08/18 06:01:50;;;;;;;;;;;;;;;31.07;51.23;100010.53;4478759;32;34535;-77
2023/08/18 06:04:17;;;;;;;;;;;;;;;30.84;51.93;100007.78;4474471;32;33811;-77
2023/08/18 06:06:46;;;;;;;;;;;;;;;30.98;51.53;100008.19;4472385;32;34046;-77
2023/08/18 06:09:13;;;;;;;;;;;;;;;30.82;51.97;99997.12;4479880;32;34147;-77
2023/08/18 06:11:41;;;;;;;;;;;;;;;31.04;51.38;100002.63;4480801;32;33698;-77
2023/08/18 06:14:08;;;;;;;;;;;;;;;30.39;52.42;100006.66;4476664;32;34028;-77
2023/08/18 06:16:36;;;;;;;;;;;;;;;31.18;50.22;100002.13;4456285;32;32487;-77
2023/08/18 06:19:03;;;;;;;;;;;;;;;30.92;50.61;99995.03;4481389;32;34045;-77
2023/08/18 06:21:31;;;;;;;;;;;;;;;31.03;50.29;99997.34;4475780;32;34284;-77
2023/08/18 06:23:58;;;;;;;;;;;;;;;30.99;50.55;100001.91;4478656;32;34741;-77
2023/08/18 06:26:25;;;;;;;;;;;;;;;30.93;51.10;100002.13;4478612;32;33894;-77
2023/08/18 06:28:53;;;;;;;;;;;;;;;31.24;50.14;100001.00;4481194;32;34111;-77
2023/08/18 06:31:20;;;;;;;;;;;;;;;31.60;48.92;99998.75;4477318;32;33230;-77
2023/08/18 06:33:48;;;;;;;;;;;;;;;31.18;49.41;99994.09;4478696;32;34509;-77
2023/08/18 06:36:15;;;;;;;;;;;;;;;31.68;47.78;99990.41;4473117;32;34079;-77
2023/08/18 06:38:42;;;;;;;;;;;;;;;31.81;47.46;99991.66;4474906;32;34420;-77
2023/08/18 06:41:10;;;;;;;;;;;;;;;31.52;47.24;99996.41;4478753;32;32775;-77
2023/08/18 06:43:37;;;;;;;;;;;;;;;31.86;45.48;99991.50;4479048;32;33964;-77
2023/08/18 06:46:05;;;;;;;;;;;;;;;31.53;46.29;99995.44;4475744;32;34179;-77
2023/08/18 06:48:33;;;;;;;;;;;;;;;31.52;46.95;99990.16;4476997;32;34954;-80
2023/08/18 06:51:00;;;;;;;;;;;;;;;31.96;45.99;99995.53;4462783;32;33662;-77
2023/08/18 06:53:27;;;;;;;;;;;;;;;32.07;44.84;100003.19;4476733;32;34938;-76
2023/08/18 06:55:56;;;;;;;;;;;;;;;32.15;44.19;100003.75;4480736;32;34038;-76
2023/08/18 06:58:28;;;;;;;;;;;;;;;32.45;43.56;99998.03;4478296;32;34671;-77
2023/08/18 07:00:56;;;;;;;;;;;;;;;32.46;43.97;99999.78;4462461;32;31679;-77
2023/08/18 07:03:23;;;;;;;;;;;;;;;32.25;44.68;99999.75;4483174;32;34248;-76
2023/08/18 07:05:50;;;;;;;;;;;;;;;32.99;43.33;99996.56;4483805;32;34243;-76
2023/08/18 07:08:21;;;;;;;;;;;;;;;33.37;41.78;100003.88;4484300;32;34296;-76
2023/08/18 07:10:48;;;;;;;;;;;;;;;32.64;43.45;100009.72;4485014;32;33299;-77
2023/08/18 07:13:15;;;;;;;;;;;;;;;32.77;43.80;100014.59;4481651;32;33683;-76
2023/08/18 07:15:43;;;;;;;;;;;;;;;33.13;43.10;100011.22;4484772;32;35050;-77
2023/08/18 07:18:10;;;;;;;;;;;;;;;33.14;42.13;99996.88;4484980;32;34046;-76
2023/08/18 07:20:37;;;;;;;;;;;;;;;33.25;42.22;100003.50;4484956;32;34047;-77
2023/08/18 07:23:05;;;;;;;;;;;;;;;33.18;42.26;100006.53;4482334;32;33759;-77
2023/08/18 07:25:32;;;;;;;;;;;;;;;33.42;42.12;100002.72;4484812;32;34624;-77
2023/08/18 07:27:59;;;;;;;;;;;;;;;33.73;41.74;100017.41;4479369;32;34168;-77
2023/08/18 07:30:27;;;;;;;;;;;;;;;33.48;42.26;100018.53;4480056;32;32561;-78
2023/08/18 07:32:55;;;;;;;;;;;;;;;33.77;41.41;100019.00;4481052;32;34205;-78
2023/08/18 07:35:23;;;;;;;;;;;;;;;33.80;41.37;100020.66;4480882;32;35074;-77
2023/08/18 07:37:51;;;;;;;;;;;;;;;33.69;40.94;100021.19;4478168;32;33903;-76
2023/08/18 07:40:22;;;;;;;;;;;;;;;33.47;41.31;100022.16;4474987;32;33045;-77
2023/08/18 07:42:49;;;;;;;;;;;;;;;33.79;40.72;100025.16;4466215;32;34737;-77
2023/08/18 07:45:17;;;;;;;;;;;;;;;33.86;41.07;100029.31;4477303;32;34555;-77
2023/08/18 07:47:45;;;;;;;;;;;;;;;34.16;40.84;100036.84;4472966;32;34493;-77
2023/08/18 07:50:12;;;;;;;;;;;;;;;34.39;39.96;100027.63;4474014;32;33814;-77
2023/08/18 07:52:41;;;;;;;;;;;;;;;34.18;40.71;100024.19;4474171;32;34280;-77
2023/08/18 07:55:09;;;;;;;;;;;;;;;34.16;40.11;100036.00;4460623;32;32729;-76
2023/08/18 07:57:39;;;;;;;;;;;;;;;34.34;39.77;100039.56;4482699;32;34892;-77
2023/08/18 08:00:17;;;;;;;;;;;;;;;34.68;39.13;100048.66;4482596;32;33025;-77
2023/08/18 08:02:45;;;;;;;;;;;;;;;34.64;39.59;100055.97;4482140;32;34023;-77
2023/08/18 08:05:13;;;;;;;;;;;;;;;34.74;39.00;100064.50;4483126;32;34916;-78
2023/08/18 08:07:40;;;;;;;;;;;;;;;34.38;39.57;100062.66;4483613;32;33686;-77
2023/08/18 08:10:08;;;;;;;;;;;;;;;34.11;39.89;100060.34;4483487;32;33196;-77
2023/08/18 08:12:37;;;;;;;;;;;;;;;33.76;40.73;100060.22;4472126;32;34825;-76
2023/08/18 08:15:05;;;;;;;;;;;;;;;33.82;40.40;100059.97;4465662;32;32951;-77
2023/08/18 08:17:33;;;;;;;;;;;;;;;33.43;41.53;100063.50;4467901;32;34519;-77
2023/08/18 08:20:05;;;;;;;;;;;;;;;33.63;41.32;100059.06;4452036;32;33256;-76
2023/08/18 08:22:33;;;;;;;;;;;;;;;33.56;41.61;100062.97;4475699;32;33934;-77
2023/08/18 08:25:00;;;;;;;;;;;;;;;33.48;41.94;100066.88;4482561;32;34900;-77
2023/08/18 08:27:27;;;;;;;;;;;;;;;33.10;43.59;100069.47;4474029;32;34836;-77
2023/08/18 08:29:55;;;;;;;;;;;;;;;33.79;41.23;100065.47;4476975;32;33214;-77
2023/08/18 08:32:27;;;;;;;;;;;;;;;34.19;40.66;100068.97;4462365;32;34653;-77
2023/08/18 08:34:55;;;;;;;;;;;;;;;34.14;41.04;100076.34;4477795;32;34125;-77
2023/08/18 08:37:23;;;;;;;;;;;;;;;34.14;40.04;100073.66;4471813;32;34443;-77
2023/08/18 08:39:50;;;;;;;;;;;;;;;33.94;40.47;100073.75;4475971;32;33640;-77
2023/08/18 08:42:17;;;;;;;;;;;;;;;34.04;40.19;100080.44;4476271;32;33843;-77
2023/08/18 08:44:45;;;;;;;;;;;;;;;34.12;40.32;100072.88;4480304;32;34660;-77
2023/08/18 08:47:12;;;;;;;;;;;;;;;34.43;40.69;100071.37;4474275;32;34328;-77
2023/08/18 08:49:45;;;;;;;6.90;6.05;;;;;;;34.93;40.30;100070.66;4470374;32;33011;-78
2023/08/18 08:52:13;;;;;;;8.10;5.95;;;;;;;35.41;38.82;100071.72;4474653;32;33954;-77
2023/08/18 08:54:53;;;;;;;;;;;;;;;35.60;38.03;100065.31;4460188;32;33939;-77
2023/08/18 08:57:22;;;;;;;;;;;;;;;35.99;36.98;100069.50;4456867;32;34254;-78
2023/08/18 08:59:49;;;;;;;;;;;;;;;35.97;36.63;100068.72;4470078;32;34104;-77
2023/08/18 09:02:16;;;;;;;;;;;;;;;36.02;36.27;100061.22;4478940;32;34098;-77
2023/08/18 09:04:44;;;;;;;;;;;;;;;35.86;35.83;100052.28;4482811;32;34337;-78
2023/08/18 09:07:14;;;;;;;;;;;;;;;35.50;37.16;100058.69;4468748;32;34015;-78
2023/08/18 09:09:42;;;;;;;7.87;5.70;;;;;;;36.40;35.54;100050.06;4477096;32;32639;-81
2023/08/18 09:12:10;;;;;;;;;;;;;;;36.25;36.47;100057.22;4468254;32;33969;-78
2023/08/18 09:14:38;;;;;;;;;;;;;;;36.63;35.83;100055.94;4481923;32;34925;-77
2023/08/18 09:17:05;;;;;;;;;;;;;;;37.11;34.52;100051.25;4472376;31;34593;-77
2023/08/18 09:19:33;;;;;;;;;;;;;;;37.25;33.86;100040.47;4477388;32;33853;-77
2023/08/18 09:22:02;;;;;;;;;;;;;;;37.39;34.21;100045.88;4476948;32;33540;-76
2023/08/18 09:24:30;;;;;;;;;;;;;;;37.42;33.88;100033.13;4483000;32;34610;-77
2023/08/18 09:27:05;;;;;;;;;;;;;;;37.29;33.85;100033.91;4476999;32;34712;-77
2023/08/18 09:29:33;;;;;;;;;;;;;;;36.72;34.95;100033.81;4475090;32;34010;-77
2023/08/18 09:32:02;;;;;;;;;;;;;;;36.63;35.10;100034.34;4470031;32;33950;-77
2023/08/18 09:34:31;;;;;;;;;;;;;;;36.81;34.85;100033.25;4484889;32;34231;-77
2023/08/18 09:36:59;;;;;;;;;;;;;;;37.18;34.15;100033.72;4485157;32;33939;-77
2023/08/18 09:39:27;;;;;;;;;;;;;;;37.68;33.81;100034.22;4484835;32;33278;-77
2023/08/18 09:41:54;;;;;;;;;;;;;;;37.69;33.64;100031.41;4474886;32;34040;-77
2023/08/18 09:44:24;;;;;;;;;;;;;;;37.90;32.53;100033.66;4484014;32;33277;-77
2023/08/18 09:46:55;;;;;;;;;;;;;;;37.91;32.63;100038.13;4477387;32;34602;-77
2023/08/18 09:49:23;;;;;;;;;;;;;;;37.80;33.14;100032.56;4483761;32;33062;-77
2023/08/18 09:51:51;;;;;;;;;;;;;;;37.45;34.03;100038.34;4459559;32;34322;-76
2023/08/18 09:54:20;;;;;;;;;;;;;;;37.26;33.56;100034.09;4480025;32;34018;-77
2023/08/18 09:56:49;;;;;;;;;;;;;;;37.25;34.13;100026.97;4481793;32;33641;-77
2023/08/18 09:59:17;;;;;;;;;;;;;;;37.25;34.24;100032.38;4458655;32;788195;-77
2023/08/18 10:01:45;;;;;;;;;;;;;;;37.25;34.52;100037.78;4485096;32;34883;-77
2023/08/18 10:04:13;;;;;;;;;;;;;;;37.30;34.59;100029.38;4476669;32;34142;-76
2023/08/18 10:06:40;;;;;;;;;;;;;;;37.48;34.89;100036.34;4480536;32;34123;-76
2023/08/18 10:09:07;;;;;;;;;;;;;;;37.44;34.99;100020.44;4465425;32;33668;-76
2023/08/18 10:11:35;;;;;;;;;;;;;;;36.78;35.29;100039.72;4464519;32;34943;-76
2023/08/18 10:14:18;;;;;;;;;;;;;;;36.91;35.42;100022.75;4465567;32;34718;-77
2023/08/18 10:16:46;;;;;;;;;;;;;;;37.49;34.55;100020.97;4457669;32;34662;-76
2023/08/18 10:19:13;;;;;;;8.70;7.00;;;;;;;37.84;33.95;100024.13;4466306;32;34013;-77
2023/08/18 10:21:40;;;;;;;;;;;;;;;37.21;34.74;100020.03;4475025;32;34315;-76
2023/08/18 10:24:08;;;;;;;;;;;;;;;37.68;34.95;100018.84;4458026;32;34217;-77
2023/08/18 10:26:37;;;;;;;;;;;;;;;38.18;34.57;100021.09;4457148;32;34307;-77
2023/08/18 10:29:16;;;;;;;;;;;;;;;38.41;33.05;100012.28;4465920;32;32544;-77
2023/08/18 10:31:48;;;;;;;;;;;;;;;38.48;32.96;100013.59;4482417;32;33678;-77
2023/08/18 10:34:19;;;;;;;;;;;;;;;38.69;32.72;100010.41;4484986;32;33872;-77
2023/08/18 10:36:46;;;;;;;;;;;;;;;38.76;32.53;100016.28;4476953;32;34116;-77
2023/08/18 10:39:29;;;;;;;;;;;;;;;39.22;31.64;100013.91;4482347;32;33844;-77
2023/08/18 10:42:14;;;;;;;;;;;;;;;39.07;31.47;100020.44;4472323;32;33966;-78
2023/08/18 10:44:55;;;;;;;;;;;;;;;38.93;31.34;100005.97;4475633;32;35004;-78
2023/08/18 10:47:28;;;;;;;;;;;;;;;38.80;31.96;100013.22;4479937;32;33493;-78
2023/08/18 10:49:57;;;;;;;;;;;;;;;39.12;31.87;100007.44;4474024;32;33287;-78
2023/08/18 10:52:26;;;;;;;;;;;;;;;39.54;30.51;100008.03;4461843;32;34709;-78
2023/08/18 10:54:54;;;;;;;;;;;;;;;39.48;30.54;100000.34;4474143;32;34722;-77
2023/08/18 10:57:22;;;;;;;;;;;;;;;39.27;31.29;100000.03;4457866;32;32422;-77
2023/08/18 10:59:50;;;;;;;;;;;;;;;39.32;30.61;100001.44;4484922;32;33280;-78
2023/08/18 11:02:17;;;;;;;;;;;;;;;39.44;30.69;100001.56;4484546;32;34313;-78
2023/08/18 11:04:45;;;;;;;;;;;;;;;39.60;30.74;99999.47;4477233;32;34625;-78
2023/08/18 11:07:12;;;;;;;;;;;;;;;39.92;29.21;99996.22;4458820;32;34012;-78
2023/08/18 11:09:39;;;;;;;;;;;;;;;39.89;29.79;99996.44;4482257;32;33379;-78
2023/08/18 11:12:07;;;;;;;;;;;;;;;39.57;29.71;99986.13;4484638;32;33711;-78
2023/08/18 11:14:34;;;;;;;;;;;;;;;39.84;28.96;99998.63;4483325;32;35072;-78
2023/08/18 11:17:02;;;;;;;;;;;;;;;39.93;29.87;99992.56;4459993;32;32527;-78
2023/08/18 11:19:30;;;;;;;;;;;;;;;40.09;28.93;99993.13;4481429;32;33384;-78
2023/08/18 11:21:57;;;;;;;;;;;;;;;39.83;28.75;99996.88;4464982;32;33531;-78
2023/08/18 11:24:25;;;;;;;6.40;5.12;;;;;;;39.95;29.38;99990.59;4472655;32;33760;-78
2023/08/18 11:26:52;;;;;;;;;;;;;;;39.46;29.31;99988.75;4478458;32;34335;-79
2023/08/18 11:29:19;;;;;;;;;;;;;;;39.23;30.96;99993.97;4476382;32;33168;-78
2023/08/18 11:31:47;;;;;;;;;;;;;;;39.09;29.30;99986.81;4462843;32;33529;-78
2023/08/18 11:34:16;;;;;;;;;;;;;;;39.06;30.18;99986.16;4479104;32;33866;-78
2023/08/18 11:36:44;;;;;;;;;;;;;;;38.77;30.43;99989.09;4466887;32;33994;-78
2023/08/18 11:39:12;;;;;;;;;;;;;;;38.07;31.75;99987.47;4464795;32;33238;-78
2023/08/18 11:41:44;;;;;;;;;;;;;;;38.90;30.70;99992.63;4460068;32;34226;-79
2023/08/18 11:44:11;;;;;;;;;;;;;;;39.05;30.04;99990.72;4482496;32;34131;-77
2023/08/18 11:46:39;;;;;;;;;;;;;;;38.85;30.59;99988.56;4484129;32;34251;-78
2023/08/18 11:49:14;;;;;;;;;;;;;;;39.24;30.69;99990.28;4470730;32;33225;-78
2023/08/18 11:51:57;;;;;;;;;;;;;;;39.12;28.99;99997.47;4459184;32;34134;-78
2023/08/18 11:54:26;;;;;;;;;;;;;;;39.29;29.85;99982.69;4478409;32;34206;-78
2023/08/18 11:56:55;;;;;;;;;;;;;;;39.58;29.80;99987.88;4467267;32;33881;-77
2023/08/18 11:59:23;;;;;;;;;;;;;;;38.87;29.78;99992.87;4480911;32;34179;-78
2023/08/18 12:01:54;;;;;;;;;;;;;;;39.12;30.27;99991.19;4483419;32;35125;-78
2023/08/18 12:04:25;;;;;;;;;;;;;;;39.12;30.28;99980.34;4481172;32;34106;-79
2023/08/18 12:06:52;;;;;;;;;;;;;;;38.81;29.65;99981.59;4484247;32;33515;-78
2023/08/18 12:09:20;;;;;;;;;;;;;;;38.91;29.91;99978.16;4483430;32;34013;-78
2023/08/18 12:11:48;;;;;;;;;;;;;;;38.70;30.25;99966.12;4482388;32;34963;-79
2023/08/18 12:14:16;;;;;;;;;;;;;;;39.13;29.77;99971.22;4476214;32;34194;-78
2023/08/18 12:16:44;;;;;;;;;;;;;;;39.42;29.41;99973.66;4481728;32;34241;-78
2023/08/18 12:19:11;;;;;;;;;;;;;;;39.33;29.24;99967.09;4479793;32;33268;-78
2023/08/18 12:21:39;;;;;;;;;;;;;;;39.33;28.75;99967.94;4481048;32;34092;-79
2023/08/18 12:24:06;;;;;;;;;;;;;;;37.58;30.47;99964.50;4475822;32;34168;-79
2023/08/18 12:26:34;;;;;;;;;;;;;;;37.81;30.05;99966.72;4483103;32;33824;-79
2023/08/18 12:29:03;;;;;;;;;;;;;;;38.04;30.77;99971.44;4483790;32;32846;-79
2023/08/18 12:31:30;;;;;;;;;;;;;;;38.33;30.22;99976.75;4481477;32;34771;-79
2023/08/18 12:34:01;;;;;;;;;;;;;;;38.14;31.67;99977.13;4480607;32;34165;-79
2023/08/18 12:36:29;;;;;;;;;;;;;;;37.95;30.80;99974.75;4482346;32;34274;-78
2023/08/18 12:38:56;;;;;;;;;;;;;;;38.55;30.38;99977.03;4485850;32;34218;-78
2023/08/18 12:41:27;;;;;;;;;;;;;;;38.37;30.34;99975.56;4485485;32;33886;-78
2023/08/18 12:43:54;;;;;;;;;;;;;;;38.13;31.62;99976.28;4458901;32;32915;-78
2023/08/18 12:46:21;;;;;;;;;;;;;;;38.51;30.59;99969.22;4472322;32;34084;-78